sensor_id;sensor_type;location;lat;lon;timestamp;P1;durP1;ratioP1;P2;durP2;ratioP2
68455;SDS011;55437;55.046;38.838;2023-02-25T00:01:19;32.15;;;13.75;;
68455;SDS011;55437;55.046;38.838;2023-02-25T00:03:49;30.75;;;14.18;;
68455;SDS011;55437;55.046;38.838;2023-02-25T00:06:19;32.40;;;14.15;;
68455;SDS011;55437;55.046;38.838;2023-02-25T00:08:48;29.88;;;13.02;;
68455;SDS011;55437;55.046;38.838;2023-02-25T00:11:15;31.52;;;13.90;;
68455;SDS011;55437;55.046;38.838;2023-02-25T00:13:43;30.92;;;14.13;;
68455;SDS011;55437;55.046;38.838;2023-02-25T00:16:09;28.58;;;14.27;;
68455;SDS011;55437;55.046;38.838;2023-02-25T00:18:36;36.97;;;15.07;;
68455;SDS011;55437;55.046;38.838;2023-02-25T00:21:05;33.53;;;14.00;;
68455;SDS011;55437;55.046;38.838;2023-02-25T00:23:35;34.33;;;14.65;;
68455;SDS011;55437;55.046;38.838;2023-02-25T00:26:01;33.72;;;14.65;;
68455;SDS011;55437;55.046;38.838;2023-02-25T00:28:31;32.60;;;14.73;;
68455;SDS011;55437;55.046;38.838;2023-02-25T00:30:58;34.20;;;14.93;;
68455;SDS011;55437;55.046;38.838;2023-02-25T00:33:24;29.95;;;15.43;;
68455;SDS011;55437;55.046;38.838;2023-02-25T00:35:50;30.50;;;14.10;;
68455;SDS011;55437;55.046;38.838;2023-02-25T00:38:16;33.72;;;15.48;;
68455;SDS011;55437;55.046;38.838;2023-02-25T00:40:45;31.92;;;14.38;;
68455;SDS011;55437;55.046;38.838;2023-02-25T00:43:10;33.28;;;14.32;;
68455;SDS011;55437;55.046;38.838;2023-02-25T00:45:37;34.58;;;15.25;;
68455;SDS011;55437;55.046;38.838;2023-02-25T00:48:05;32.92;;;12.93;;
68455;SDS011;55437;55.046;38.838;2023-02-25T00:50:34;29.38;;;13.35;;
68455;SDS011;55437;55.046;38.838;2023-02-25T00:53:00;30.88;;;14.07;;
68455;SDS011;55437;55.046;38.838;2023-02-25T00:55:26;32.15;;;14.05;;
68455;SDS011;55437;55.046;38.838;2023-02-25T00:57:58;28.70;;;13.15;;
68455;SDS011;55437;55.046;38.838;2023-02-25T01:00:25;30.38;;;12.82;;
68455;SDS011;55437;55.046;38.838;2023-02-25T01:02:51;34.90;;;14.32;;
68455;SDS011;55437;55.046;38.838;2023-02-25T01:05:17;31.88;;;15.10;;
68455;SDS011;55437;55.046;38.838;2023-02-25T01:07:43;30.60;;;14.57;;
68455;SDS011;55437;55.046;38.838;2023-02-25T01:10:09;28.85;;;12.77;;
68455;SDS011;55437;55.046;38.838;2023-02-25T01:12:35;28.95;;;13.40;;
68455;SDS011;55437;55.046;38.838;2023-02-25T01:15:02;33.55;;;13.68;;
68455;SDS011;55437;55.046;38.838;2023-02-25T01:17:29;28.17;;;14.18;;
68455;SDS011;55437;55.046;38.838;2023-02-25T01:19:55;29.30;;;14.23;;
68455;SDS011;55437;55.046;38.838;2023-02-25T01:22:22;30.08;;;12.35;;
68455;SDS011;55437;55.046;38.838;2023-02-25T01:24:48;30.15;;;13.88;;
68455;SDS011;55437;55.046;38.838;2023-02-25T01:27:15;34.10;;;13.95;;
68455;SDS011;55437;55.046;38.838;2023-02-25T01:29:42;29.67;;;12.25;;
68455;SDS011;55437;55.046;38.838;2023-02-25T01:32:11;30.75;;;14.27;;
68455;SDS011;55437;55.046;38.838;2023-02-25T01:34:38;30.60;;;14.40;;
68455;SDS011;55437;55.046;38.838;2023-02-25T01:37:06;28.35;;;12.90;;
68455;SDS011;55437;55.046;38.838;2023-02-25T01:39:34;27.98;;;12.80;;
68455;SDS011;55437;55.046;38.838;2023-02-25T01:42:01;30.88;;;14.80;;
68455;SDS011;55437;55.046;38.838;2023-02-25T01:44:31;26.92;;;13.52;;
68455;SDS011;55437;55.046;38.838;2023-02-25T01:46:59;31.95;;;13.65;;
68455;SDS011;55437;55.046;38.838;2023-02-25T01:49:30;31.02;;;13.05;;
68455;SDS011;55437;55.046;38.838;2023-02-25T01:54:48;28.77;;;12.88;;
68455;SDS011;55437;55.046;38.838;2023-02-25T01:57:18;32.38;;;12.48;;
68455;SDS011;55437;55.046;38.838;2023-02-25T01:59:45;32.35;;;13.57;;
68455;SDS011;55437;55.046;38.838;2023-02-25T02:02:14;28.30;;;12.80;;
68455;SDS011;55437;55.046;38.838;2023-02-25T02:04:44;28.08;;;13.35;;
68455;SDS011;55437;55.046;38.838;2023-02-25T02:07:18;26.23;;;11.60;;
68455;SDS011;55437;55.046;38.838;2023-02-25T02:09:45;28.83;;;12.68;;
68455;SDS011;55437;55.046;38.838;2023-02-25T02:12:21;29.13;;;14.23;;
68455;SDS011;55437;55.046;38.838;2023-02-25T02:14:50;28.50;;;12.95;;
68455;SDS011;55437;55.046;38.838;2023-02-25T02:22:38;29.42;;;13.85;;
68455;SDS011;55437;55.046;38.838;2023-02-25T02:34:10;26.10;;;12.63;;
68455;SDS011;55437;55.046;38.838;2023-02-25T02:36:58;30.00;;;12.55;;
68455;SDS011;55437;55.046;38.838;2023-02-25T02:50:03;27.23;;;12.75;;
68455;SDS011;55437;55.046;38.838;2023-02-25T02:52:38;26.63;;;11.27;;
68455;SDS011;55437;55.046;38.838;2023-02-25T02:55:19;26.17;;;12.02;;
68455;SDS011;55437;55.046;38.838;2023-02-25T02:57:51;27.02;;;13.88;;
68455;SDS011;55437;55.046;38.838;2023-02-25T03:00:23;27.15;;;12.32;;
68455;SDS011;55437;55.046;38.838;2023-02-25T03:02:59;28.90;;;12.60;;
68455;SDS011;55437;55.046;38.838;2023-02-25T03:05:30;25.25;;;11.70;;
68455;SDS011;55437;55.046;38.838;2023-02-25T03:08:01;25.95;;;12.07;;
68455;SDS011;55437;55.046;38.838;2023-02-25T03:10:38;24.95;;;12.18;;
68455;SDS011;55437;55.046;38.838;2023-02-25T03:13:04;26.60;;;11.45;;
68455;SDS011;55437;55.046;38.838;2023-02-25T03:15:31;25.98;;;11.93;;
68455;SDS011;55437;55.046;38.838;2023-02-25T03:18:21;24.73;;;11.02;;
68455;SDS011;55437;55.046;38.838;2023-02-25T03:20:50;22.70;;;10.50;;
68455;SDS011;55437;55.046;38.838;2023-02-25T03:23:21;26.20;;;11.52;;
68455;SDS011;55437;55.046;38.838;2023-02-25T03:26:36;21.88;;;10.60;;
68455;SDS011;55437;55.046;38.838;2023-02-25T03:28:57;23.13;;;10.43;;
68455;SDS011;55437;55.046;38.838;2023-02-25T03:31:44;24.95;;;11.82;;
68455;SDS011;55437;55.046;38.838;2023-02-25T03:34:26;26.30;;;11.23;;
68455;SDS011;55437;55.046;38.838;2023-02-25T03:36:57;23.63;;;10.98;;
68455;SDS011;55437;55.046;38.838;2023-02-25T03:39:28;23.83;;;11.90;;
68455;SDS011;55437;55.046;38.838;2023-02-25T03:41:58;23.45;;;10.60;;
68455;SDS011;55437;55.046;38.838;2023-02-25T03:44:30;22.73;;;10.85;;
68455;SDS011;55437;55.046;38.838;2023-02-25T03:47:00;24.48;;;10.52;;
68455;SDS011;55437;55.046;38.838;2023-02-25T03:49:30;23.67;;;11.52;;
68455;SDS011;55437;55.046;38.838;2023-02-25T03:52:00;23.92;;;11.75;;
68455;SDS011;55437;55.046;38.838;2023-02-25T03:54:32;21.77;;;10.65;;
68455;SDS011;55437;55.046;38.838;2023-02-25T03:56:57;20.30;;;10.05;;
68455;SDS011;55437;55.046;38.838;2023-02-25T03:59:23;20.55;;;10.32;;
68455;SDS011;55437;55.046;38.838;2023-02-25T04:01:52;21.88;;;10.18;;
68455;SDS011;55437;55.046;38.838;2023-02-25T04:04:20;20.83;;;9.90;;
68455;SDS011;55437;55.046;38.838;2023-02-25T04:06:46;21.10;;;9.70;;
68455;SDS011;55437;55.046;38.838;2023-02-25T04:09:12;21.25;;;9.93;;
68455;SDS011;55437;55.046;38.838;2023-02-25T04:11:38;19.85;;;10.25;;
68455;SDS011;55437;55.046;38.838;2023-02-25T04:14:04;21.10;;;9.40;;
68455;SDS011;55437;55.046;38.838;2023-02-25T04:16:30;22.05;;;10.20;;
68455;SDS011;55437;55.046;38.838;2023-02-25T04:18:57;24.88;;;10.55;;
68455;SDS011;55437;55.046;38.838;2023-02-25T04:21:25;20.27;;;10.35;;
68455;SDS011;55437;55.046;38.838;2023-02-25T04:26:19;19.63;;;8.77;;
68455;SDS011;55437;55.046;38.838;2023-02-25T04:28:46;19.15;;;10.25;;
68455;SDS011;55437;55.046;38.838;2023-02-25T04:31:11;19.35;;;9.18;;
68455;SDS011;55437;55.046;38.838;2023-02-25T04:33:37;20.17;;;9.52;;
68455;SDS011;55437;55.046;38.838;2023-02-25T04:36:03;18.40;;;9.93;;
68455;SDS011;55437;55.046;38.838;2023-02-25T04:38:29;21.10;;;9.95;;
68455;SDS011;55437;55.046;38.838;2023-02-25T04:40:55;19.55;;;9.43;;
68455;SDS011;55437;55.046;38.838;2023-02-25T04:43:20;18.20;;;9.30;;
68455;SDS011;55437;55.046;38.838;2023-02-25T04:45:46;17.42;;;8.73;;
68455;SDS011;55437;55.046;38.838;2023-02-25T04:48:12;20.27;;;10.18;;
68455;SDS011;55437;55.046;38.838;2023-02-25T04:50:38;19.55;;;10.18;;
68455;SDS011;55437;55.046;38.838;2023-02-25T04:53:03;20.30;;;10.20;;
68455;SDS011;55437;55.046;38.838;2023-02-25T04:55:29;19.00;;;9.32;;
68455;SDS011;55437;55.046;38.838;2023-02-25T04:57:55;18.33;;;8.77;;
68455;SDS011;55437;55.046;38.838;2023-02-25T05:00:22;18.42;;;9.23;;
68455;SDS011;55437;55.046;38.838;2023-02-25T05:03:07;17.88;;;9.07;;
68455;SDS011;55437;55.046;38.838;2023-02-25T05:05:33;18.05;;;9.68;;
68455;SDS011;55437;55.046;38.838;2023-02-25T05:07:58;19.73;;;9.02;;
68455;SDS011;55437;55.046;38.838;2023-02-25T05:10:27;19.13;;;8.65;;
68455;SDS011;55437;55.046;38.838;2023-02-25T05:12:55;19.63;;;9.15;;
68455;SDS011;55437;55.046;38.838;2023-02-25T05:15:20;17.63;;;9.57;;
68455;SDS011;55437;55.046;38.838;2023-02-25T05:17:47;18.13;;;8.45;;
68455;SDS011;55437;55.046;38.838;2023-02-25T05:20:13;18.15;;;9.07;;
68455;SDS011;55437;55.046;38.838;2023-02-25T05:22:39;18.70;;;8.88;;
68455;SDS011;55437;55.046;38.838;2023-02-25T05:25:06;14.43;;;8.40;;
68455;SDS011;55437;55.046;38.838;2023-02-25T05:27:33;18.70;;;9.52;;
68455;SDS011;55437;55.046;38.838;2023-02-25T05:29:59;17.77;;;9.48;;
68455;SDS011;55437;55.046;38.838;2023-02-25T05:32:25;18.15;;;8.80;;
68455;SDS011;55437;55.046;38.838;2023-02-25T05:34:54;17.33;;;8.95;;
68455;SDS011;55437;55.046;38.838;2023-02-25T05:37:20;17.40;;;9.13;;
68455;SDS011;55437;55.046;38.838;2023-02-25T05:39:46;16.42;;;8.52;;
68455;SDS011;55437;55.046;38.838;2023-02-25T05:42:15;17.67;;;8.48;;
68455;SDS011;55437;55.046;38.838;2023-02-25T05:44:44;16.92;;;8.20;;
68455;SDS011;55437;55.046;38.838;2023-02-25T05:47:11;17.00;;;9.50;;
68455;SDS011;55437;55.046;38.838;2023-02-25T05:49:39;17.08;;;8.55;;
68455;SDS011;55437;55.046;38.838;2023-02-25T05:52:07;17.30;;;9.00;;
68455;SDS011;55437;55.046;38.838;2023-02-25T05:54:35;17.98;;;8.02;;
68455;SDS011;55437;55.046;38.838;2023-02-25T05:57:25;17.48;;;8.52;;
68455;SDS011;55437;55.046;38.838;2023-02-25T05:59:59;16.15;;;8.27;;
68455;SDS011;55437;55.046;38.838;2023-02-25T06:02:26;18.63;;;8.27;;
68455;SDS011;55437;55.046;38.838;2023-02-25T06:04:52;14.75;;;7.80;;
68455;SDS011;55437;55.046;38.838;2023-02-25T06:10:00;16.13;;;8.25;;
68455;SDS011;55437;55.046;38.838;2023-02-25T06:12:27;16.50;;;8.40;;
68455;SDS011;55437;55.046;38.838;2023-02-25T06:14:54;16.50;;;8.00;;
68455;SDS011;55437;55.046;38.838;2023-02-25T06:17:20;16.05;;;8.88;;
68455;SDS011;55437;55.046;38.838;2023-02-25T06:19:49;15.85;;;7.72;;
68455;SDS011;55437;55.046;38.838;2023-02-25T06:22:16;16.35;;;7.85;;
68455;SDS011;55437;55.046;38.838;2023-02-25T06:27:11;15.18;;;7.53;;
68455;SDS011;55437;55.046;38.838;2023-02-25T06:29:38;16.55;;;7.95;;
68455;SDS011;55437;55.046;38.838;2023-02-25T06:32:09;15.55;;;7.93;;
68455;SDS011;55437;55.046;38.838;2023-02-25T06:34:36;15.23;;;7.55;;
68455;SDS011;55437;55.046;38.838;2023-02-25T06:37:03;13.30;;;6.90;;
68455;SDS011;55437;55.046;38.838;2023-02-25T06:39:29;16.15;;;8.20;;
68455;SDS011;55437;55.046;38.838;2023-02-25T06:41:55;15.27;;;7.82;;
68455;SDS011;55437;55.046;38.838;2023-02-25T06:44:21;14.85;;;7.80;;
68455;SDS011;55437;55.046;38.838;2023-02-25T06:46:50;15.30;;;8.82;;
68455;SDS011;55437;55.046;38.838;2023-02-25T06:49:17;18.13;;;8.95;;
68455;SDS011;55437;55.046;38.838;2023-02-25T06:51:43;14.68;;;7.63;;
68455;SDS011;55437;55.046;38.838;2023-02-25T06:54:09;15.50;;;7.63;;
68455;SDS011;55437;55.046;38.838;2023-02-25T06:56:38;13.88;;;8.07;;
68455;SDS011;55437;55.046;38.838;2023-02-25T06:59:04;13.75;;;7.78;;
68455;SDS011;55437;55.046;38.838;2023-02-25T07:01:30;12.60;;;6.68;;
68455;SDS011;55437;55.046;38.838;2023-02-25T07:03:57;14.95;;;6.93;;
68455;SDS011;55437;55.046;38.838;2023-02-25T07:06:26;15.20;;;7.45;;
68455;SDS011;55437;55.046;38.838;2023-02-25T07:13:47;13.73;;;7.70;;
68455;SDS011;55437;55.046;38.838;2023-02-25T07:16:14;13.02;;;6.90;;
68455;SDS011;55437;55.046;38.838;2023-02-25T07:18:42;15.38;;;7.00;;
68455;SDS011;55437;55.046;38.838;2023-02-25T07:21:08;13.10;;;6.85;;
68455;SDS011;55437;55.046;38.838;2023-02-25T07:23:37;14.82;;;6.78;;
68455;SDS011;55437;55.046;38.838;2023-02-25T07:26:04;13.07;;;6.45;;
68455;SDS011;55437;55.046;38.838;2023-02-25T07:28:31;13.30;;;7.60;;
68455;SDS011;55437;55.046;38.838;2023-02-25T07:30:59;13.45;;;7.53;;
68455;SDS011;55437;55.046;38.838;2023-02-25T07:33:27;13.35;;;7.75;;
68455;SDS011;55437;55.046;38.838;2023-02-25T07:35:54;12.57;;;6.63;;
68455;SDS011;55437;55.046;38.838;2023-02-25T07:38:20;14.68;;;7.47;;
68455;SDS011;55437;55.046;38.838;2023-02-25T07:40:46;13.30;;;7.00;;
68455;SDS011;55437;55.046;38.838;2023-02-25T07:43:12;13.77;;;6.82;;
68455;SDS011;55437;55.046;38.838;2023-02-25T07:45:39;13.10;;;7.38;;
68455;SDS011;55437;55.046;38.838;2023-02-25T07:48:05;12.30;;;6.47;;
68455;SDS011;55437;55.046;38.838;2023-02-25T07:50:30;13.63;;;7.32;;
68455;SDS011;55437;55.046;38.838;2023-02-25T07:52:57;12.75;;;7.35;;
68455;SDS011;55437;55.046;38.838;2023-02-25T07:55:23;12.98;;;6.70;;
68455;SDS011;55437;55.046;38.838;2023-02-25T07:57:49;13.95;;;7.43;;
68455;SDS011;55437;55.046;38.838;2023-02-25T08:00:15;13.32;;;6.90;;
68455;SDS011;55437;55.046;38.838;2023-02-25T08:02:42;11.98;;;6.93;;
68455;SDS011;55437;55.046;38.838;2023-02-25T08:05:08;12.35;;;7.05;;
68455;SDS011;55437;55.046;38.838;2023-02-25T08:07:34;12.07;;;6.78;;
68455;SDS011;55437;55.046;38.838;2023-02-25T08:10:02;13.05;;;7.45;;
68455;SDS011;55437;55.046;38.838;2023-02-25T08:12:29;11.93;;;6.40;;
68455;SDS011;55437;55.046;38.838;2023-02-25T08:14:55;11.13;;;6.93;;
68455;SDS011;55437;55.046;38.838;2023-02-25T08:17:21;13.93;;;7.28;;
68455;SDS011;55437;55.046;38.838;2023-02-25T08:19:47;11.70;;;6.03;;
68455;SDS011;55437;55.046;38.838;2023-02-25T08:22:13;12.10;;;6.53;;
68455;SDS011;55437;55.046;38.838;2023-02-25T08:24:39;13.05;;;6.78;;
68455;SDS011;55437;55.046;38.838;2023-02-25T08:27:05;11.23;;;6.25;;
68455;SDS011;55437;55.046;38.838;2023-02-25T08:29:34;13.05;;;6.38;;
68455;SDS011;55437;55.046;38.838;2023-02-25T08:32:00;12.90;;;6.15;;
68455;SDS011;55437;55.046;38.838;2023-02-25T08:34:26;14.20;;;6.45;;
68455;SDS011;55437;55.046;38.838;2023-02-25T08:36:52;12.13;;;6.32;;
68455;SDS011;55437;55.046;38.838;2023-02-25T08:39:19;12.38;;;6.00;;
68455;SDS011;55437;55.046;38.838;2023-02-25T08:41:45;14.00;;;6.97;;
68455;SDS011;55437;55.046;38.838;2023-02-25T08:44:11;11.32;;;5.93;;
68455;SDS011;55437;55.046;38.838;2023-02-25T08:46:37;11.98;;;6.82;;
68455;SDS011;55437;55.046;38.838;2023-02-25T08:49:04;11.80;;;5.55;;
68455;SDS011;55437;55.046;38.838;2023-02-25T08:51:31;11.57;;;5.90;;
68455;SDS011;55437;55.046;38.838;2023-02-25T08:54:01;10.68;;;5.55;;
68455;SDS011;55437;55.046;38.838;2023-02-25T08:56:33;12.52;;;6.72;;
68455;SDS011;55437;55.046;38.838;2023-02-25T08:59:01;11.82;;;6.15;;
68455;SDS011;55437;55.046;38.838;2023-02-25T09:01:30;10.98;;;5.78;;
68455;SDS011;55437;55.046;38.838;2023-02-25T09:04:13;10.20;;;5.68;;
68455;SDS011;55437;55.046;38.838;2023-02-25T09:06:40;10.02;;;5.40;;
68455;SDS011;55437;55.046;38.838;2023-02-25T09:09:06;11.38;;;6.20;;
68455;SDS011;55437;55.046;38.838;2023-02-25T09:11:32;10.95;;;5.85;;
68455;SDS011;55437;55.046;38.838;2023-02-25T09:13:58;11.23;;;6.10;;
68455;SDS011;55437;55.046;38.838;2023-02-25T09:16:26;10.13;;;6.00;;
68455;SDS011;55437;55.046;38.838;2023-02-25T09:18:54;10.35;;;5.70;;
68455;SDS011;55437;55.046;38.838;2023-02-25T09:21:20;9.63;;;5.72;;
68455;SDS011;55437;55.046;38.838;2023-02-25T09:23:47;10.63;;;5.53;;
68455;SDS011;55437;55.046;38.838;2023-02-25T09:26:16;11.63;;;6.13;;
68455;SDS011;55437;55.046;38.838;2023-02-25T09:28:43;10.10;;;5.18;;
68455;SDS011;55437;55.046;38.838;2023-02-25T09:31:08;9.35;;;4.82;;
68455;SDS011;55437;55.046;38.838;2023-02-25T09:33:34;11.48;;;5.32;;
68455;SDS011;55437;55.046;38.838;2023-02-25T09:36:09;11.45;;;5.85;;
68455;SDS011;55437;55.046;38.838;2023-02-25T09:38:40;9.18;;;5.07;;
68455;SDS011;55437;55.046;38.838;2023-02-25T09:43:57;10.32;;;5.25;;
68455;SDS011;55437;55.046;38.838;2023-02-25T09:46:25;11.02;;;5.35;;
68455;SDS011;55437;55.046;38.838;2023-02-25T09:49:30;10.25;;;5.05;;
68455;SDS011;55437;55.046;38.838;2023-02-25T09:52:22;12.60;;;4.90;;
68455;SDS011;55437;55.046;38.838;2023-02-25T09:55:01;9.68;;;4.82;;
68455;SDS011;55437;55.046;38.838;2023-02-25T09:57:37;9.82;;;4.43;;
68455;SDS011;55437;55.046;38.838;2023-02-25T10:00:17;9.00;;;4.55;;
68455;SDS011;55437;55.046;38.838;2023-02-25T10:26:53;8.15;;;3.95;;
68455;SDS011;55437;55.046;38.838;2023-02-25T10:29:29;9.55;;;4.35;;
68455;SDS011;55437;55.046;38.838;2023-02-25T10:32:11;9.60;;;4.88;;
68455;SDS011;55437;55.046;38.838;2023-02-25T10:34:41;8.13;;;4.18;;
68455;SDS011;55437;55.046;38.838;2023-02-25T10:37:10;8.57;;;4.05;;
68455;SDS011;55437;55.046;38.838;2023-02-25T10:39:45;9.57;;;4.82;;
68455;SDS011;55437;55.046;38.838;2023-02-25T10:42:13;8.40;;;4.00;;
68455;SDS011;55437;55.046;38.838;2023-02-25T10:44:40;8.80;;;4.57;;
68455;SDS011;55437;55.046;38.838;2023-02-25T10:47:08;11.00;;;6.68;;
68455;SDS011;55437;55.046;38.838;2023-02-25T10:49:40;8.68;;;4.18;;
68455;SDS011;55437;55.046;38.838;2023-02-25T10:52:14;8.07;;;3.97;;
68455;SDS011;55437;55.046;38.838;2023-02-25T10:54:48;9.70;;;4.90;;
68455;SDS011;55437;55.046;38.838;2023-02-25T10:57:16;8.63;;;4.38;;
68455;SDS011;55437;55.046;38.838;2023-02-25T11:00:01;10.45;;;4.75;;
68455;SDS011;55437;55.046;38.838;2023-02-25T11:02:48;10.02;;;5.13;;
68455;SDS011;55437;55.046;38.838;2023-02-25T11:07:54;7.85;;;4.00;;
68455;SDS011;55437;55.046;38.838;2023-02-25T11:10:21;7.82;;;4.00;;
68455;SDS011;55437;55.046;38.838;2023-02-25T11:12:52;8.50;;;3.67;;
68455;SDS011;55437;55.046;38.838;2023-02-25T11:15:41;8.40;;;4.43;;
68455;SDS011;55437;55.046;38.838;2023-02-25T11:18:21;10.07;;;5.05;;
68455;SDS011;55437;55.046;38.838;2023-02-25T11:20:58;8.85;;;4.13;;
68455;SDS011;55437;55.046;38.838;2023-02-25T11:23:35;9.75;;;4.93;;
68455;SDS011;55437;55.046;38.838;2023-02-25T11:26:06;11.93;;;6.05;;
68455;SDS011;55437;55.046;38.838;2023-02-25T11:31:04;10.27;;;6.38;;
68455;SDS011;55437;55.046;38.838;2023-02-25T11:33:37;10.23;;;5.32;;
68455;SDS011;55437;55.046;38.838;2023-02-25T11:36:10;9.18;;;4.93;;
68455;SDS011;55437;55.046;38.838;2023-02-25T11:38:38;9.45;;;5.15;;
68455;SDS011;55437;55.046;38.838;2023-02-25T11:41:24;10.85;;;4.65;;
68455;SDS011;55437;55.046;38.838;2023-02-25T11:43:56;11.75;;;6.38;;
68455;SDS011;55437;55.046;38.838;2023-02-25T11:46:25;10.82;;;5.43;;
68455;SDS011;55437;55.046;38.838;2023-02-25T11:49:12;10.32;;;5.65;;
68455;SDS011;55437;55.046;38.838;2023-02-25T11:51:55;10.75;;;5.30;;
68455;SDS011;55437;55.046;38.838;2023-02-25T11:57:14;10.68;;;5.32;;
68455;SDS011;55437;55.046;38.838;2023-02-25T12:06:07;13.20;;;5.75;;
68455;SDS011;55437;55.046;38.838;2023-02-25T12:08:57;11.57;;;5.93;;
68455;SDS011;55437;55.046;38.838;2023-02-25T12:14:06;11.27;;;5.82;;
68455;SDS011;55437;55.046;38.838;2023-02-25T12:22:46;11.32;;;6.43;;
68455;SDS011;55437;55.046;38.838;2023-02-25T12:45:43;11.20;;;5.95;;
68455;SDS011;55437;55.046;38.838;2023-02-25T12:59:10;14.32;;;6.80;;
68455;SDS011;55437;55.046;38.838;2023-02-25T13:05:02;14.35;;;8.27;;
68455;SDS011;55437;55.046;38.838;2023-02-25T13:10:17;15.10;;;7.40;;
68455;SDS011;55437;55.046;38.838;2023-02-25T13:15:37;12.38;;;7.63;;
68455;SDS011;55437;55.046;38.838;2023-02-25T13:24:47;13.90;;;7.32;;
68455;SDS011;55437;55.046;38.838;2023-02-25T13:30:40;14.77;;;8.30;;
68455;SDS011;55437;55.046;38.838;2023-02-25T13:33:24;13.90;;;8.98;;
68455;SDS011;55437;55.046;38.838;2023-02-25T13:38:58;17.67;;;8.45;;
68455;SDS011;55437;55.046;38.838;2023-02-25T13:47:36;18.17;;;9.38;;
68455;SDS011;55437;55.046;38.838;2023-02-25T13:58:43;17.95;;;9.52;;
68455;SDS011;55437;55.046;38.838;2023-02-25T14:24:39;20.27;;;9.82;;
68455;SDS011;55437;55.046;38.838;2023-02-25T14:43:56;19.38;;;9.07;;
68455;SDS011;55437;55.046;38.838;2023-02-25T14:46:33;19.83;;;9.50;;
68455;SDS011;55437;55.046;38.838;2023-02-25T15:03:00;20.90;;;9.27;;
68455;SDS011;55437;55.046;38.838;2023-02-25T15:20:43;22.27;;;11.05;;
68455;SDS011;55437;55.046;38.838;2023-02-25T15:23:10;25.67;;;10.70;;
68455;SDS011;55437;55.046;38.838;2023-02-25T15:25:39;24.83;;;10.98;;
68455;SDS011;55437;55.046;38.838;2023-02-25T15:33:45;29.00;;;12.60;;
68455;SDS011;55437;55.046;38.838;2023-02-25T15:43:57;28.73;;;13.90;;
68455;SDS011;55437;55.046;38.838;2023-02-25T15:46:48;32.35;;;13.15;;
68455;SDS011;55437;55.046;38.838;2023-02-25T15:52:08;32.55;;;13.38;;
68455;SDS011;55437;55.046;38.838;2023-02-25T15:59:48;39.47;;;14.38;;
68455;SDS011;55437;55.046;38.838;2023-02-25T16:05:05;34.30;;;13.38;;
68455;SDS011;55437;55.046;38.838;2023-02-25T16:10:50;33.03;;;12.43;;
68455;SDS011;55437;55.046;38.838;2023-02-25T16:13:21;33.15;;;14.02;;
68455;SDS011;55437;55.046;38.838;2023-02-25T16:15:54;30.15;;;13.50;;
68455;SDS011;55437;55.046;38.838;2023-02-25T16:21:02;36.20;;;15.18;;
68455;SDS011;55437;55.046;38.838;2023-02-25T16:23:37;33.10;;;14.50;;
68455;SDS011;55437;55.046;38.838;2023-02-25T16:28:45;35.45;;;12.68;;
68455;SDS011;55437;55.046;38.838;2023-02-25T16:37:11;35.15;;;13.50;;
68455;SDS011;55437;55.046;38.838;2023-02-25T16:39:38;32.67;;;13.52;;
68455;SDS011;55437;55.046;38.838;2023-02-25T16:42:12;34.38;;;14.57;;
68455;SDS011;55437;55.046;38.838;2023-02-25T16:44:44;35.00;;;12.95;;
68455;SDS011;55437;55.046;38.838;2023-02-25T16:47:23;34.65;;;14.93;;
68455;SDS011;55437;55.046;38.838;2023-02-25T16:50:11;29.88;;;12.60;;
68455;SDS011;55437;55.046;38.838;2023-02-25T16:53:26;35.08;;;14.50;;
68455;SDS011;55437;55.046;38.838;2023-02-25T16:55:56;30.25;;;13.48;;
68455;SDS011;55437;55.046;38.838;2023-02-25T16:58:25;29.58;;;12.07;;
68455;SDS011;55437;55.046;38.838;2023-02-25T17:00:59;34.83;;;14.98;;
68455;SDS011;55437;55.046;38.838;2023-02-25T17:03:30;35.92;;;13.65;;
68455;SDS011;55437;55.046;38.838;2023-02-25T17:06:15;35.88;;;14.13;;
68455;SDS011;55437;55.046;38.838;2023-02-25T17:08:47;33.33;;;14.52;;
68455;SDS011;55437;55.046;38.838;2023-02-25T17:11:33;34.80;;;14.18;;
68455;SDS011;55437;55.046;38.838;2023-02-25T17:14:00;37.83;;;14.25;;
68455;SDS011;55437;55.046;38.838;2023-02-25T17:19:00;30.00;;;12.70;;
68455;SDS011;55437;55.046;38.838;2023-02-25T17:21:35;32.05;;;12.93;;
68455;SDS011;55437;55.046;38.838;2023-02-25T17:24:04;22.85;;;10.40;;
68455;SDS011;55437;55.046;38.838;2023-02-25T17:26:38;33.10;;;13.65;;
68455;SDS011;55437;55.046;38.838;2023-02-25T17:29:11;24.30;;;10.75;;
68455;SDS011;55437;55.046;38.838;2023-02-25T17:31:46;31.42;;;13.60;;
68455;SDS011;55437;55.046;38.838;2023-02-25T17:34:16;26.15;;;11.60;;
68455;SDS011;55437;55.046;38.838;2023-02-25T17:36:47;30.58;;;12.48;;
68455;SDS011;55437;55.046;38.838;2023-02-25T17:39:17;29.20;;;12.43;;
68455;SDS011;55437;55.046;38.838;2023-02-25T17:41:44;29.48;;;13.05;;
68455;SDS011;55437;55.046;38.838;2023-02-25T17:44:41;28.23;;;12.77;;
68455;SDS011;55437;55.046;38.838;2023-02-25T17:47:11;33.22;;;14.50;;
68455;SDS011;55437;55.046;38.838;2023-02-25T17:49:47;33.03;;;13.20;;
68455;SDS011;55437;55.046;38.838;2023-02-25T17:52:21;30.67;;;12.00;;
68455;SDS011;55437;55.046;38.838;2023-02-25T17:54:57;28.08;;;12.63;;
68455;SDS011;55437;55.046;38.838;2023-02-25T17:57:25;30.35;;;13.63;;
68455;SDS011;55437;55.046;38.838;2023-02-25T17:59:54;22.05;;;10.50;;
68455;SDS011;55437;55.046;38.838;2023-02-25T18:04:51;31.98;;;13.38;;
68455;SDS011;55437;55.046;38.838;2023-02-25T18:07:39;25.70;;;10.38;;
68455;SDS011;55437;55.046;38.838;2023-02-25T18:12:57;22.92;;;10.38;;
68455;SDS011;55437;55.046;38.838;2023-02-25T18:15:26;24.48;;;9.75;;
68455;SDS011;55437;55.046;38.838;2023-02-25T18:18:19;22.50;;;9.63;;
68455;SDS011;55437;55.046;38.838;2023-02-25T18:20:46;20.52;;;8.88;;
68455;SDS011;55437;55.046;38.838;2023-02-25T18:25:39;24.92;;;11.20;;
68455;SDS011;55437;55.046;38.838;2023-02-25T18:28:11;24.15;;;10.90;;
68455;SDS011;55437;55.046;38.838;2023-02-25T18:30:42;18.88;;;8.07;;
68455;SDS011;55437;55.046;38.838;2023-02-25T18:33:09;19.58;;;7.25;;
68455;SDS011;55437;55.046;38.838;2023-02-25T18:35:38;21.63;;;9.75;;
68455;SDS011;55437;55.046;38.838;2023-02-25T18:38:08;20.88;;;9.40;;
68455;SDS011;55437;55.046;38.838;2023-02-25T18:40:40;24.48;;;10.18;;
68455;SDS011;55437;55.046;38.838;2023-02-25T18:43:06;23.67;;;9.98;;
68455;SDS011;55437;55.046;38.838;2023-02-25T18:45:34;24.73;;;10.50;;
68455;SDS011;55437;55.046;38.838;2023-02-25T18:48:01;25.40;;;10.30;;
68455;SDS011;55437;55.046;38.838;2023-02-25T18:50:28;26.42;;;11.00;;
68455;SDS011;55437;55.046;38.838;2023-02-25T18:52:54;26.00;;;10.80;;
68455;SDS011;55437;55.046;38.838;2023-02-25T18:55:23;24.08;;;9.80;;
68455;SDS011;55437;55.046;38.838;2023-02-25T18:57:50;23.15;;;10.10;;
68455;SDS011;55437;55.046;38.838;2023-02-25T19:00:36;24.00;;;11.43;;
68455;SDS011;55437;55.046;38.838;2023-02-25T19:03:03;24.73;;;11.25;;
68455;SDS011;55437;55.046;38.838;2023-02-25T19:05:30;26.02;;;11.85;;
68455;SDS011;55437;55.046;38.838;2023-02-25T19:07:55;24.50;;;10.18;;
68455;SDS011;55437;55.046;38.838;2023-02-25T19:10:23;27.08;;;10.60;;